sensor_id;sensor_type;location;lat;lon;timestamp;temperature;humidity
11934;DHT22;6026;48.784;9.198;2023-04-15T00:01:09;6.50;99.90
11934;DHT22;6026;48.784;9.198;2023-04-15T00:03:34;6.40;99.90
11934;DHT22;6026;48.784;9.198;2023-04-15T00:06:01;6.40;99.90
11934;DHT22;6026;48.784;9.198;2023-04-15T00:08:26;6.40;99.90
11934;DHT22;6026;48.784;9.198;2023-04-15T00:10:52;6.30;99.90
11934;DHT22;6026;48.784;9.198;2023-04-15T00:13:17;6.30;99.90
11934;DHT22;6026;48.784;9.198;2023-04-15T00:15:43;6.30;99.90
11934;DHT22;6026;48.784;9.198;2023-04-15T00:18:09;6.30;99.90
11934;DHT22;6026;48.784;9.198;2023-04-15T00:20:34;6.30;99.90
11934;DHT22;6026;48.784;9.198;2023-04-15T00:23:01;6.30;99.90
11934;DHT22;6026;48.784;9.198;2023-04-15T00:25:28;6.20;99.90
11934;DHT22;6026;48.784;9.198;2023-04-15T00:27:53;6.20;99.90
11934;DHT22;6026;48.784;9.198;2023-04-15T00:30:19;6.10;99.90
11934;DHT22;6026;48.784;9.198;2023-04-15T00:32:44;6.10;99.90
11934;DHT22;6026;48.784;9.198;2023-04-15T00:35:11;6.00;99.90
11934;DHT22;6026;48.784;9.198;2023-04-15T00:37:36;6.00;99.90
11934;DHT22;6026;48.784;9.198;2023-04-15T00:40:02;6.00;99.90
11934;DHT22;6026;48.784;9.198;2023-04-15T00:42:30;5.90;99.90
11934;DHT22;6026;48.784;9.198;2023-04-15T00:44:56;5.90;99.90
11934;DHT22;6026;48.784;9.198;2023-04-15T00:47:22;5.90;99.90
11934;DHT22;6026;48.784;9.198;2023-04-15T00:49:48;5.90;99.90
11934;DHT22;6026;48.784;9.198;2023-04-15T00:52:13;5.80;99.90
11934;DHT22;6026;48.784;9.198;2023-04-15T00:54:39;5.80;99.90
11934;DHT22;6026;48.784;9.198;2023-04-15T00:57:05;5.80;99.90
11934;DHT22;6026;48.784;9.198;2023-04-15T00:59:32;5.80;99.90
11934;DHT22;6026;48.784;9.198;2023-04-15T01:01:58;5.70;99.90
11934;DHT22;6026;48.784;9.198;2023-04-15T01:04:24;5.70;99.90
11934;DHT22;6026;48.784;9.198;2023-04-15T01:06:50;5.70;99.90
11934;DHT22;6026;48.784;9.198;2023-04-15T01:09:16;5.70;99.90
11934;DHT22;6026;48.784;9.198;2023-04-15T01:11:41;5.60;99.90
11934;DHT22;6026;48.784;9.198;2023-04-15T01:14:08;5.50;99.90
11934;DHT22;6026;48.784;9.198;2023-04-15T01:16:35;5.50;99.90
11934;DHT22;6026;48.784;9.198;2023-04-15T01:19:01;5.50;99.90
11934;DHT22;6026;48.784;9.198;2023-04-15T01:21:26;5.50;99.90
11934;DHT22;6026;48.784;9.198;2023-04-15T01:23:52;5.50;99.90
11934;DHT22;6026;48.784;9.198;2023-04-15T01:26:20;5.40;99.90
11934;DHT22;6026;48.784;9.198;2023-04-15T01:28:46;5.40;99.90
11934;DHT22;6026;48.784;9.198;2023-04-15T01:31:12;5.40;99.90
11934;DHT22;6026;48.784;9.198;2023-04-15T01:33:40;5.40;99.90
11934;DHT22;6026;48.784;9.198;2023-04-15T01:36:07;5.30;99.90
11934;DHT22;6026;48.784;9.198;2023-04-15T01:38:34;5.30;99.90
11934;DHT22;6026;48.784;9.198;2023-04-15T01:41:01;5.30;99.90
11934;DHT22;6026;48.784;9.198;2023-04-15T01:43:28;5.30;99.90
11934;DHT22;6026;48.784;9.198;2023-04-15T01:45:54;5.30;99.90
11934;DHT22;6026;48.784;9.198;2023-04-15T01:48:20;5.30;99.90
11934;DHT22;6026;48.784;9.198;2023-04-15T01:50:45;5.30;99.90
11934;DHT22;6026;48.784;9.198;2023-04-15T01:53:11;5.30;99.90
11934;DHT22;6026;48.784;9.198;2023-04-15T01:55:37;5.20;99.90
11934;DHT22;6026;48.784;9.198;2023-04-15T01:58:02;5.20;99.90
11934;DHT22;6026;48.784;9.198;2023-04-15T02:00:28;5.10;99.90
11934;DHT22;6026;48.784;9.198;2023-04-15T02:02:55;5.10;99.90
11934;DHT22;6026;48.784;9.198;2023-04-15T02:05:20;5.10;99.90
11934;DHT22;6026;48.784;9.198;2023-04-15T02:07:46;5.20;99.90
11934;DHT22;6026;48.784;9.198;2023-04-15T02:10:12;5.10;99.90
11934;DHT22;6026;48.784;9.198;2023-04-15T02:12:38;5.10;99.90
11934;DHT22;6026;48.784;9.198;2023-04-15T02:15:05;5.10;99.90
11934;DHT22;6026;48.784;9.198;2023-04-15T02:17:33;5.10;99.90
11934;DHT22;6026;48.784;9.198;2023-04-15T02:20:00;5.00;99.90
11934;DHT22;6026;48.784;9.198;2023-04-15T02:22:25;5.00;99.90
11934;DHT22;6026;48.784;9.198;2023-04-15T02:24:51;5.00;99.90
11934;DHT22;6026;48.784;9.198;2023-04-15T02:27:17;4.90;99.90
11934;DHT22;6026;48.784;9.198;2023-04-15T02:29:44;4.90;99.90
11934;DHT22;6026;48.784;9.198;2023-04-15T02:32:10;4.80;99.90
11934;DHT22;6026;48.784;9.198;2023-04-15T02:34:37;4.80;99.90
11934;DHT22;6026;48.784;9.198;2023-04-15T02:37:09;4.80;99.90
11934;DHT22;6026;48.784;9.198;2023-04-15T02:39:35;4.80;99.90
11934;DHT22;6026;48.784;9.198;2023-04-15T02:42:00;4.80;99.90
11934;DHT22;6026;48.784;9.198;2023-04-15T02:44:27;4.60;99.90
11934;DHT22;6026;48.784;9.198;2023-04-15T02:46:53;4.50;99.90
11934;DHT22;6026;48.784;9.198;2023-04-15T02:49:22;4.50;99.90
11934;DHT22;6026;48.784;9.198;2023-04-15T02:51:48;4.50;99.90
11934;DHT22;6026;48.784;9.198;2023-04-15T02:54:17;4.50;99.90
11934;DHT22;6026;48.784;9.198;2023-04-15T02:56:43;4.50;99.90
11934;DHT22;6026;48.784;9.198;2023-04-15T02:59:09;4.50;99.90
11934;DHT22;6026;48.784;9.198;2023-04-15T03:01:34;4.60;99.90
11934;DHT22;6026;48.784;9.198;2023-04-15T03:04:00;4.50;99.90
11934;DHT22;6026;48.784;9.198;2023-04-15T03:06:26;4.60;99.90
11934;DHT22;6026;48.784;9.198;2023-04-15T03:08:51;4.50;99.90
11934;DHT22;6026;48.784;9.198;2023-04-15T03:11:18;4.50;99.90
11934;DHT22;6026;48.784;9.198;2023-04-15T03:13:43;4.50;99.90
11934;DHT22;6026;48.784;9.198;2023-04-15T03:16:09;4.50;99.90
11934;DHT22;6026;48.784;9.198;2023-04-15T03:18:34;4.50;99.90
11934;DHT22;6026;48.784;9.198;2023-04-15T03:21:00;4.50;99.90
11934;DHT22;6026;48.784;9.198;2023-04-15T03:23:27;4.40;99.90
11934;DHT22;6026;48.784;9.198;2023-04-15T03:25:52;4.40;99.90
11934;DHT22;6026;48.784;9.198;2023-04-15T03:28:20;4.50;99.90
11934;DHT22;6026;48.784;9.198;2023-04-15T03:30:45;4.60;99.90
11934;DHT22;6026;48.784;9.198;2023-04-15T03:33:11;4.50;99.90
11934;DHT22;6026;48.784;9.198;2023-04-15T03:35:36;4.50;99.90
11934;DHT22;6026;48.784;9.198;2023-04-15T03:38:02;4.40;99.90
11934;DHT22;6026;48.784;9.198;2023-04-15T03:40:28;4.40;99.90
11934;DHT22;6026;48.784;9.198;2023-04-15T03:42:53;4.40;99.90
11934;DHT22;6026;48.784;9.198;2023-04-15T03:45:19;4.40;99.90
11934;DHT22;6026;48.784;9.198;2023-04-15T03:47:44;4.40;99.90
11934;DHT22;6026;48.784;9.198;2023-04-15T03:50:10;4.40;99.90
11934;DHT22;6026;48.784;9.198;2023-04-15T03:52:36;4.30;99.90
11934;DHT22;6026;48.784;9.198;2023-04-15T03:55:02;4.30;99.90
11934;DHT22;6026;48.784;9.198;2023-04-15T03:57:28;4.30;99.90
11934;DHT22;6026;48.784;9.198;2023-04-15T03:59:54;4.30;99.90
11934;DHT22;6026;48.784;9.198;2023-04-15T04:02:19;4.30;99.90
11934;DHT22;6026;48.784;9.198;2023-04-15T04:04:45;4.30;99.90
11934;DHT22;6026;48.784;9.198;2023-04-15T04:07:15;4.30;99.90
11934;DHT22;6026;48.784;9.198;2023-04-15T04:09:41;4.30;99.90
11934;DHT22;6026;48.784;9.198;2023-04-15T04:12:06;4.20;99.90
11934;DHT22;6026;48.784;9.198;2023-04-15T04:14:33;4.10;99.90
11934;DHT22;6026;48.784;9.198;2023-04-15T04:16:58;4.00;99.90
11934;DHT22;6026;48.784;9.198;2023-04-15T04:19:24;4.10;99.90
11934;DHT22;6026;48.784;9.198;2023-04-15T04:21:50;4.10;99.90
11934;DHT22;6026;48.784;9.198;2023-04-15T04:24:16;4.10;99.90
11934;DHT22;6026;48.784;9.198;2023-04-15T04:26:42;4.10;99.90
11934;DHT22;6026;48.784;9.198;2023-04-15T04:29:07;4.10;99.90
11934;DHT22;6026;48.784;9.198;2023-04-15T04:31:33;4.00;99.90
11934;DHT22;6026;48.784;9.198;2023-04-15T04:33:58;4.00;99.90
11934;DHT22;6026;48.784;9.198;2023-04-15T04:36:24;4.00;99.90
11934;DHT22;6026;48.784;9.198;2023-04-15T04:38:50;4.00;99.90
11934;DHT22;6026;48.784;9.198;2023-04-15T04:41:17;3.90;99.90
11934;DHT22;6026;48.784;9.198;2023-04-15T04:43:42;3.90;99.90
11934;DHT22;6026;48.784;9.198;2023-04-15T04:46:08;3.90;99.90
11934;DHT22;6026;48.784;9.198;2023-04-15T04:48:34;3.80;99.90
11934;DHT22;6026;48.784;9.198;2023-04-15T04:51:00;3.90;99.90
11934;DHT22;6026;48.784;9.198;2023-04-15T04:53:26;3.80;99.90
11934;DHT22;6026;48.784;9.198;2023-04-15T04:55:52;3.80;99.90
11934;DHT22;6026;48.784;9.198;2023-04-15T04:58:18;3.80;99.90
11934;DHT22;6026;48.784;9.198;2023-04-15T05:00:43;3.80;99.90
11934;DHT22;6026;48.784;9.198;2023-04-15T05:03:09;3.80;99.90
11934;DHT22;6026;48.784;9.198;2023-04-15T05:05:35;3.80;99.90
11934;DHT22;6026;48.784;9.198;2023-04-15T05:08:03;3.80;99.90
11934;DHT22;6026;48.784;9.198;2023-04-15T05:10:30;3.70;99.90
11934;DHT22;6026;48.784;9.198;2023-04-15T05:12:56;3.80;99.90
11934;DHT22;6026;48.784;9.198;2023-04-15T05:15:21;3.70;99.90
11934;DHT22;6026;48.784;9.198;2023-04-15T05:17:47;3.70;99.90
11934;DHT22;6026;48.784;9.198;2023-04-15T05:20:12;3.70;99.90
11934;DHT22;6026;48.784;9.198;2023-04-15T05:22:38;3.80;99.90
11934;DHT22;6026;48.784;9.198;2023-04-15T05:25:04;3.80;99.90
11934;DHT22;6026;48.784;9.198;2023-04-15T05:27:30;3.80;99.90
11934;DHT22;6026;48.784;9.198;2023-04-15T05:29:56;3.80;99.90
11934;DHT22;6026;48.784;9.198;2023-04-15T05:32:21;3.80;99.90
11934;DHT22;6026;48.784;9.198;2023-04-15T05:34:47;3.90;99.90
11934;DHT22;6026;48.784;9.198;2023-04-15T05:37:12;4.00;99.90
11934;DHT22;6026;48.784;9.198;2023-04-15T05:39:38;4.10;99.90
11934;DHT22;6026;48.784;9.198;2023-04-15T05:42:03;4.10;99.90
11934;DHT22;6026;48.784;9.198;2023-04-15T05:44:30;4.20;99.90
11934;DHT22;6026;48.784;9.198;2023-04-15T05:46:56;4.30;99.90
11934;DHT22;6026;48.784;9.198;2023-04-15T05:49:22;4.40;99.90
11934;DHT22;6026;48.784;9.198;2023-04-15T05:51:48;4.50;99.90
11934;DHT22;6026;48.784;9.198;2023-04-15T05:54:13;4.70;99.90
11934;DHT22;6026;48.784;9.198;2023-04-15T05:56:39;4.90;99.90
11934;DHT22;6026;48.784;9.198;2023-04-15T05:59:04;5.20;99.90
11934;DHT22;6026;48.784;9.198;2023-04-15T06:01:32;5.40;99.90
11934;DHT22;6026;48.784;9.198;2023-04-15T06:03:57;5.70;99.90
11934;DHT22;6026;48.784;9.198;2023-04-15T06:06:23;6.00;99.90
11934;DHT22;6026;48.784;9.198;2023-04-15T06:08:48;6.30;99.90
11934;DHT22;6026;48.784;9.198;2023-04-15T06:11:14;6.70;99.90
11934;DHT22;6026;48.784;9.198;2023-04-15T06:13:39;6.80;99.90
11934;DHT22;6026;48.784;9.198;2023-04-15T06:16:06;7.20;99.90
11934;DHT22;6026;48.784;9.198;2023-04-15T06:18:32;7.40;99.90
11934;DHT22;6026;48.784;9.198;2023-04-15T06:20:57;7.60;99.90
11934;DHT22;6026;48.784;9.198;2023-04-15T06:23:23;7.60;99.90
11934;DHT22;6026;48.784;9.198;2023-04-15T06:25:49;7.70;99.90
11934;DHT22;6026;48.784;9.198;2023-04-15T06:28:14;7.80;99.90
11934;DHT22;6026;48.784;9.198;2023-04-15T06:30:40;7.80;99.90
11934;DHT22;6026;48.784;9.198;2023-04-15T06:33:05;7.90;99.90
11934;DHT22;6026;48.784;9.198;2023-04-15T06:35:31;7.90;99.90
11934;DHT22;6026;48.784;9.198;2023-04-15T06:37:57;8.10;99.90
11934;DHT22;6026;48.784;9.198;2023-04-15T06:40:23;8.20;99.90
11934;DHT22;6026;48.784;9.198;2023-04-15T06:42:48;8.30;99.90
11934;DHT22;6026;48.784;9.198;2023-04-15T06:45:14;8.50;99.90
11934;DHT22;6026;48.784;9.198;2023-04-15T06:47:40;8.60;99.90
11934;DHT22;6026;48.784;9.198;2023-04-15T06:50:06;8.70;99.90
11934;DHT22;6026;48.784;9.198;2023-04-15T06:52:34;8.80;99.90
11934;DHT22;6026;48.784;9.198;2023-04-15T06:55:00;8.80;99.90
11934;DHT22;6026;48.784;9.198;2023-04-15T06:57:26;8.90;99.90
11934;DHT22;6026;48.784;9.198;2023-04-15T06:59:53;9.20;99.90
11934;DHT22;6026;48.784;9.198;2023-04-15T07:02:19;9.40;99.90
11934;DHT22;6026;48.784;9.198;2023-04-15T07:04:45;9.70;99.90
11934;DHT22;6026;48.784;9.198;2023-04-15T07:07:10;9.80;99.90
11934;DHT22;6026;48.784;9.198;2023-04-15T07:09:36;10.00;99.90
11934;DHT22;6026;48.784;9.198;2023-04-15T07:12:03;10.30;99.90
11934;DHT22;6026;48.784;9.198;2023-04-15T07:14:28;10.50;99.90
11934;DHT22;6026;48.784;9.198;2023-04-15T07:16:54;10.90;99.90
11934;DHT22;6026;48.784;9.198;2023-04-15T07:19:20;11.10;99.90
11934;DHT22;6026;48.784;9.198;2023-04-15T07:21:46;11.20;99.90
11934;DHT22;6026;48.784;9.198;2023-04-15T07:24:11;11.30;99.90
11934;DHT22;6026;48.784;9.198;2023-04-15T07:26:41;11.30;99.90
11934;DHT22;6026;48.784;9.198;2023-04-15T07:29:06;11.30;99.90
11934;DHT22;6026;48.784;9.198;2023-04-15T07:31:32;11.30;99.90
11934;DHT22;6026;48.784;9.198;2023-04-15T07:33:57;11.20;99.90
11934;DHT22;6026;48.784;9.198;2023-04-15T07:36:24;11.20;99.90
11934;DHT22;6026;48.784;9.198;2023-04-15T07:38:49;11.10;99.90
11934;DHT22;6026;48.784;9.198;2023-04-15T07:41:15;10.90;99.90
11934;DHT22;6026;48.784;9.198;2023-04-15T07:43:40;10.90;99.90
11934;DHT22;6026;48.784;9.198;2023-04-15T07:46:06;10.70;99.90
11934;DHT22;6026;48.784;9.198;2023-04-15T07:48:31;10.60;99.90
11934;DHT22;6026;48.784;9.198;2023-04-15T07:50:58;10.60;99.90
11934;DHT22;6026;48.784;9.198;2023-04-15T07:53:23;10.60;99.90
11934;DHT22;6026;48.784;9.198;2023-04-15T07:55:49;10.70;99.90
11934;DHT22;6026;48.784;9.198;2023-04-15T07:58:15;10.70;99.90
11934;DHT22;6026;48.784;9.198;2023-04-15T08:00:40;10.60;99.90
11934;DHT22;6026;48.784;9.198;2023-04-15T08:03:06;10.60;99.90
11934;DHT22;6026;48.784;9.198;2023-04-15T08:05:31;10.80;99.90
11934;DHT22;6026;48.784;9.198;2023-04-15T08:07:57;11.00;99.90
11934;DHT22;6026;48.784;9.198;2023-04-15T08:10:23;11.30;99.90
11934;DHT22;6026;48.784;9.198;2023-04-15T08:12:48;11.50;99.90
11934;DHT22;6026;48.784;9.198;2023-04-15T08:15:14;11.70;99.90
11934;DHT22;6026;48.784;9.198;2023-04-15T08:17:39;11.90;99.90
11934;DHT22;6026;48.784;9.198;2023-04-15T08:20:06;12.10;99.90
11934;DHT22;6026;48.784;9.198;2023-04-15T08:22:31;12.30;99.90
11934;DHT22;6026;48.784;9.198;2023-04-15T08:24:57;12.30;99.90
11934;DHT22;6026;48.784;9.198;2023-04-15T08:27:23;12.40;99.90
11934;DHT22;6026;48.784;9.198;2023-04-15T08:29:49;12.60;99.90
11934;DHT22;6026;48.784;9.198;2023-04-15T08:32:14;12.50;99.90
11934;DHT22;6026;48.784;9.198;2023-04-15T08:34:41;12.60;99.90
11934;DHT22;6026;48.784;9.198;2023-04-15T08:37:07;13.10;99.90
11934;DHT22;6026;48.784;9.198;2023-04-15T08:39:32;13.50;99.90
11934;DHT22;6026;48.784;9.198;2023-04-15T08:42:00;13.80;99.90
11934;DHT22;6026;48.784;9.198;2023-04-15T08:44:28;14.00;99.90
11934;DHT22;6026;48.784;9.198;2023-04-15T08:46:56;14.10;99.90
11934;DHT22;6026;48.784;9.198;2023-04-15T08:49:26;13.80;99.90
11934;DHT22;6026;48.784;9.198;2023-04-15T08:51:53;14.50;99.90
11934;DHT22;6026;48.784;9.198;2023-04-15T08:54:19;15.10;99.90
11934;DHT22;6026;48.784;9.198;2023-04-15T08:56:45;15.70;99.90
11934;DHT22;6026;48.784;9.198;2023-04-15T08:59:12;15.40;99.90
11934;DHT22;6026;48.784;9.198;2023-04-15T09:01:38;15.90;99.90
11934;DHT22;6026;48.784;9.198;2023-04-15T09:04:05;16.40;99.90
11934;DHT22;6026;48.784;9.198;2023-04-15T09:06:32;16.70;99.90
11934;DHT22;6026;48.784;9.198;2023-04-15T09:08:58;17.00;99.90
11934;DHT22;6026;48.784;9.198;2023-04-15T09:11:23;17.20;99.90
11934;DHT22;6026;48.784;9.198;2023-04-15T09:13:49;17.30;99.90
11934;DHT22;6026;48.784;9.198;2023-04-15T09:16:16;17.60;99.90
11934;DHT22;6026;48.784;9.198;2023-04-15T09:18:42;17.80;99.90
11934;DHT22;6026;48.784;9.198;2023-04-15T09:21:09;18.00;99.90
11934;DHT22;6026;48.784;9.198;2023-04-15T09:23:37;18.10;99.90
11934;DHT22;6026;48.784;9.198;2023-04-15T09:26:03;18.20;99.90
11934;DHT22;6026;48.784;9.198;2023-04-15T09:28:29;17.90;99.90
11934;DHT22;6026;48.784;9.198;2023-04-15T09:30:59;17.70;99.90
11934;DHT22;6026;48.784;9.198;2023-04-15T09:33:26;17.70;99.90
11934;DHT22;6026;48.784;9.198;2023-04-15T09:36:01;17.60;99.90
11934;DHT22;6026;48.784;9.198;2023-04-15T09:38:27;17.70;99.90
11934;DHT22;6026;48.784;9.198;2023-04-15T09:40:56;17.90;99.90
11934;DHT22;6026;48.784;9.198;2023-04-15T09:43:26;18.00;99.90
11934;DHT22;6026;48.784;9.198;2023-04-15T09:46:01;18.10;99.90
11934;DHT22;6026;48.784;9.198;2023-04-15T09:48:27;18.00;99.90
11934;DHT22;6026;48.784;9.198;2023-04-15T09:50:55;17.70;99.90
11934;DHT22;6026;48.784;9.198;2023-04-15T09:53:23;17.40;99.90
11934;DHT22;6026;48.784;9.198;2023-04-15T09:55:53;17.30;99.90
11934;DHT22;6026;48.784;9.198;2023-04-15T09:58:20;17.40;99.90
11934;DHT22;6026;48.784;9.198;2023-04-15T10:00:48;17.00;99.90
11934;DHT22;6026;48.784;9.198;2023-04-15T10:03:20;16.70;99.90
11934;DHT22;6026;48.784;9.198;2023-04-15T10:05:51;16.70;99.90
11934;DHT22;6026;48.784;9.198;2023-04-15T10:08:19;16.80;99.90
11934;DHT22;6026;48.784;9.198;2023-04-15T10:10:46;16.90;99.90
11934;DHT22;6026;48.784;9.198;2023-04-15T10:13:17;16.90;99.90
11934;DHT22;6026;48.784;9.198;2023-04-15T10:15:44;16.90;99.90
11934;DHT22;6026;48.784;9.198;2023-04-15T10:18:15;16.80;99.90
11934;DHT22;6026;48.784;9.198;2023-04-15T10:20:45;16.80;99.90
11934;DHT22;6026;48.784;9.198;2023-04-15T10:23:11;16.70;99.90
11934;DHT22;6026;48.784;9.198;2023-04-15T10:25:38;16.60;99.90
11934;DHT22;6026;48.784;9.198;2023-04-15T10:28:07;16.70;99.90
11934;DHT22;6026;48.784;9.198;2023-04-15T10:30:34;16.70;99.90
11934;DHT22;6026;48.784;9.198;2023-04-15T10:33:02;17.10;99.90
11934;DHT22;6026;48.784;9.198;2023-04-15T10:35:30;17.20;99.90
11934;DHT22;6026;48.784;9.198;2023-04-15T10:37:56;17.50;99.90
11934;DHT22;6026;48.784;9.198;2023-04-15T10:40:29;17.50;99.90
11934;DHT22;6026;48.784;9.198;2023-04-15T10:43:00;17.50;99.90
11934;DHT22;6026;48.784;9.198;2023-04-15T10:45:27;17.50;99.90
11934;DHT22;6026;48.784;9.198;2023-04-15T10:47:57;17.60;99.90
11934;DHT22;6026;48.784;9.198;2023-04-15T10:50:27;17.70;99.90
11934;DHT22;6026;48.784;9.198;2023-04-15T10:52:55;17.80;99.90
11934;DHT22;6026;48.784;9.198;2023-04-15T10:55:24;17.90;99.90
11934;DHT22;6026;48.784;9.198;2023-04-15T10:57:53;17.80;99.90
11934;DHT22;6026;48.784;9.198;2023-04-15T11:00:24;17.80;99.90
11934;DHT22;6026;48.784;9.198;2023-04-15T11:05:20;17.70;99.90
11934;DHT22;6026;48.784;9.198;2023-04-15T11:07:49;18.00;99.90
11934;DHT22;6026;48.784;9.198;2023-04-15T11:12:51;18.10;99.90
11934;DHT22;6026;48.784;9.198;2023-04-15T11:15:30;18.00;99.90
11934;DHT22;6026;48.784;9.198;2023-04-15T11:17:58;18.10;99.90
11934;DHT22;6026;48.784;9.198;2023-04-15T11:20:24;18.20;99.90
11934;DHT22;6026;48.784;9.198;2023-04-15T11:22:52;18.50;99.90
11934;DHT22;6026;48.784;9.198;2023-04-15T11:25:25;18.60;99.90
11934;DHT22;6026;48.784;9.198;2023-04-15T11:27:52;18.50;99.90
11934;DHT22;6026;48.784;9.198;2023-04-15T11:30:20;18.60;99.90
11934;DHT22;6026;48.784;9.198;2023-04-15T11:32:50;18.40;99.90
11934;DHT22;6026;48.784;9.198;2023-04-15T11:35:16;18.30;99.90
11934;DHT22;6026;48.784;9.198;2023-04-15T11:37:43;18.30;99.90
11934;DHT22;6026;48.784;9.198;2023-04-15T11:40:10;18.40;99.90
11934;DHT22;6026;48.784;9.198;2023-04-15T11:42:36;18.50;99.90
11934;DHT22;6026;48.784;9.198;2023-04-15T11:45:08;18.40;99.90
11934;DHT22;6026;48.784;9.198;2023-04-15T11:47:37;18.00;99.90
11934;DHT22;6026;48.784;9.198;2023-04-15T11:50:20;17.90;99.90
11934;DHT22;6026;48.784;9.198;2023-04-15T11:53:00;17.40;99.90
11934;DHT22;6026;48.784;9.198;2023-04-15T11:55:26;16.90;99.90
11934;DHT22;6026;48.784;9.198;2023-04-15T12:00:40;16.20;99.90
11934;DHT22;6026;48.784;9.198;2023-04-15T12:06:09;16.20;99.90
11934;DHT22;6026;48.784;9.198;2023-04-15T12:08:58;16.30;99.90
11934;DHT22;6026;48.784;9.198;2023-04-15T12:11:46;16.50;99.90
11934;DHT22;6026;48.784;9.198;2023-04-15T12:16:47;16.80;99.90
11934;DHT22;6026;48.784;9.198;2023-04-15T12:19:21;17.00;99.90
11934;DHT22;6026;48.784;9.198;2023-04-15T12:21:47;16.80;99.90
11934;DHT22;6026;48.784;9.198;2023-04-15T12:24:13;16.60;99.90
11934;DHT22;6026;48.784;9.198;2023-04-15T12:26:47;16.30;99.90
11934;DHT22;6026;48.784;9.198;2023-04-15T12:29:14;16.40;99.90
11934;DHT22;6026;48.784;9.198;2023-04-15T12:31:56;16.00;99.90
11934;DHT22;6026;48.784;9.198;2023-04-15T12:34:36;15.00;99.90
11934;DHT22;6026;48.784;9.198;2023-04-15T12:37:04;14.30;99.90
11934;DHT22;6026;48.784;9.198;2023-04-15T12:39:33;13.30;99.90
11934;DHT22;6026;48.784;9.198;2023-04-15T12:41:59;12.60;99.90
11934;DHT22;6026;48.784;9.198;2023-04-15T12:44:26;12.20;99.90
11934;DHT22;6026;48.784;9.198;2023-04-15T12:46:52;11.60;99.90
11934;DHT22;6026;48.784;9.198;2023-04-15T12:49:19;11.30;99.90
11934;DHT22;6026;48.784;9.198;2023-04-15T12:51:48;11.00;99.90
11934;DHT22;6026;48.784;9.198;2023-04-15T12:54:14;10.80;99.90
11934;DHT22;6026;48.784;9.198;2023-04-15T12:56:41;10.60;99.90
11934;DHT22;6026;48.784;9.198;2023-04-15T12:59:06;10.50;99.90
11934;DHT22;6026;48.784;9.198;2023-04-15T13:01:32;10.50;99.90
11934;DHT22;6026;48.784;9.198;2023-04-15T13:03:57;10.50;99.90
11934;DHT22;6026;48.784;9.198;2023-04-15T13:06:23;10.60;99.90
11934;DHT22;6026;48.784;9.198;2023-04-15T13:08:49;10.70;99.90
11934;DHT22;6026;48.784;9.198;2023-04-15T13:11:15;10.80;99.90
11934;DHT22;6026;48.784;9.198;2023-04-15T13:13:41;10.90;99.90
11934;DHT22;6026;48.784;9.198;2023-04-15T13:16:07;11.00;99.90
11934;DHT22;6026;48.784;9.198;2023-04-15T13:18:33;11.20;99.90
11934;DHT22;6026;48.784;9.198;2023-04-15T13:20:59;11.30;99.90
11934;DHT22;6026;48.784;9.198;2023-04-15T13:23:25;11.40;99.90
11934;DHT22;6026;48.784;9.198;2023-04-15T13:25:51;11.60;99.90
11934;DHT22;6026;48.784;9.198;2023-04-15T13:28:16;11.70;99.90
11934;DHT22;6026;48.784;9.198;2023-04-15T13:30:42;11.80;99.90
11934;DHT22;6026;48.784;9.198;2023-04-15T13:33:08;12.00;99.90
11934;DHT22;6026;48.784;9.198;2023-04-15T13:35:34;12.10;99.90
11934;DHT22;6026;48.784;9.198;2023-04-15T13:38:00;12.20;99.90
11934;DHT22;6026;48.784;9.198;2023-04-15T13:40:25;12.30;99.90
11934;DHT22;6026;48.784;9.198;2023-04-15T13:42:51;12.40;99.90
11934;DHT22;6026;48.784;9.198;2023-04-15T13:45:17;12.50;99.90
11934;DHT22;6026;48.784;9.198;2023-04-15T13:47:43;12.60;99.90
11934;DHT22;6026;48.784;9.198;2023-04-15T13:50:09;12.80;99.90
11934;DHT22;6026;48.784;9.198;2023-04-15T13:52:35;12.80;99.90
11934;DHT22;6026;48.784;9.198;2023-04-15T13:55:04;12.80;99.90
11934;DHT22;6026;48.784;9.198;2023-04-15T13:57:30;12.70;99.90
11934;DHT22;6026;48.784;9.198;2023-04-15T13:59:56;12.70;99.90
11934;DHT22;6026;48.784;9.198;2023-04-15T14:02:22;12.70;99.90
11934;DHT22;6026;48.784;9.198;2023-04-15T14:04:48;12.70;99.90
11934;DHT22;6026;48.784;9.198;2023-04-15T14:07:13;12.70;99.90
11934;DHT22;6026;48.784;9.198;2023-04-15T14:09:39;12.70;99.90
11934;DHT22;6026;48.784;9.198;2023-04-15T14:12:05;12.60;99.90
11934;DHT22;6026;48.784;9.198;2023-04-15T14:14:30;12.60;99.90
11934;DHT22;6026;48.784;9.198;2023-04-15T14:16:56;12.50;99.90
11934;DHT22;6026;48.784;9.198;2023-04-15T14:19:23;12.50;99.90
11934;DHT22;6026;48.784;9.198;2023-04-15T14:21:48;12.50;99.90
11934;DHT22;6026;48.784;9.198;2023-04-15T14:24:14;12.50;99.90
11934;DHT22;6026;48.784;9.198;2023-04-15T14:26:39;12.50;99.90
11934;DHT22;6026;48.784;9.198;2023-04-15T14:29:08;12.50;99.90
11934;DHT22;6026;48.784;9.198;2023-04-15T14:31:33;12.50;99.90
11934;DHT22;6026;48.784;9.198;2023-04-15T14:33:59;12.50;99.90
11934;DHT22;6026;48.784;9.198;2023-04-15T14:36:25;12.50;99.90
11934;DHT22;6026;48.784;9.198;2023-04-15T14:38:51;12.40;99.90
11934;DHT22;6026;48.784;9.198;2023-04-15T14:41:17;12.50;99.90
11934;DHT22;6026;48.784;9.198;2023-04-15T14:43:42;12.40;99.90
11934;DHT22;6026;48.784;9.198;2023-04-15T14:46:09;12.30;99.90
11934;DHT22;6026;48.784;9.198;2023-04-15T14:48:34;12.20;99.90
11934;DHT22;6026;48.784;9.198;2023-04-15T14:51:00;12.10;99.90
11934;DHT22;6026;48.784;9.198;2023-04-15T14:53:26;12.00;99.90
11934;DHT22;6026;48.784;9.198;2023-04-15T14:55:51;11.90;99.90
11934;DHT22;6026;48.784;9.198;2023-04-15T14:58:17;11.90;99.90
11934;DHT22;6026;48.784;9.198;2023-04-15T15:00:42;11.80;99.90
11934;DHT22;6026;48.784;9.198;2023-04-15T15:03:10;11.70;99.90
11934;DHT22;6026;48.784;9.198;2023-04-15T15:05:45;11.60;99.90
11934;DHT22;6026;48.784;9.198;2023-04-15T15:08:11;11.50;99.90
11934;DHT22;6026;48.784;9.198;2023-04-15T15:10:38;11.40;99.90
11934;DHT22;6026;48.784;9.198;2023-04-15T15:13:07;11.30;99.90
11934;DHT22;6026;48.784;9.198;2023-04-15T15:15:34;11.30;99.90
11934;DHT22;6026;48.784;9.198;2023-04-15T15:17:59;11.20;99.90
11934;DHT22;6026;48.784;9.198;2023-04-15T15:20:26;11.20;99.90
11934;DHT22;6026;48.784;9.198;2023-04-15T15:22:52;11.20;99.90
11934;DHT22;6026;48.784;9.198;2023-04-15T15:25:17;11.20;99.90
11934;DHT22;6026;48.784;9.198;2023-04-15T15:27:43;11.20;99.90
11934;DHT22;6026;48.784;9.198;2023-04-15T15:30:09;11.10;99.90
11934;DHT22;6026;48.784;9.198;2023-04-15T15:32:35;11.10;99.90
11934;DHT22;6026;48.784;9.198;2023-04-15T15:35:00;11.10;99.90
11934;DHT22;6026;48.784;9.198;2023-04-15T15:37:26;11.00;99.90
11934;DHT22;6026;48.784;9.198;2023-04-15T15:39:52;10.90;99.90
11934;DHT22;6026;48.784;9.198;2023-04-15T15:42:21;10.90;99.90
11934;DHT22;6026;48.784;9.198;2023-04-15T15:44:48;10.80;99.90
11934;DHT22;6026;48.784;9.198;2023-04-15T15:47:17;10.80;99.90
11934;DHT22;6026;48.784;9.198;2023-04-15T15:49:44;10.70;99.90
11934;DHT22;6026;48.784;9.198;2023-04-15T15:52:10;10.70;99.90
11934;DHT22;6026;48.784;9.198;2023-04-15T15:54:35;10.70;99.90
11934;DHT22;6026;48.784;9.198;2023-04-15T15:57:02;10.70;99.90
11934;DHT22;6026;48.784;9.198;2023-04-15T15:59:28;10.70;99.90
11934;DHT22;6026;48.784;9.198;2023-04-15T16:01:53;10.70;99.90